sensor_id;sensor_type;location;lat;lon;timestamp;pressure;altitude;pressure_sealevel;temperature;humidity
76847;BME280;65813;49.546;8.644;2023-02-28T05:17:34;101617.44;;;-0.63;63.95
76847;BME280;65813;49.546;8.644;2023-02-28T05:21:36;101624.41;;;-0.65;63.95
76847;BME280;65813;49.546;8.644;2023-02-28T05:25:37;101624.31;;;-0.48;63.16
76847;BME280;65813;49.546;8.644;2023-02-28T05:29:37;101624.19;;;-0.35;63.47
76847;BME280;65813;49.546;8.644;2023-02-28T05:33:41;101614.75;;;-0.59;63.91
76847;BME280;65813;49.546;8.644;2023-02-28T05:37:44;101626.88;;;-0.47;64.24
76847;BME280;65813;49.546;8.644;2023-02-28T05:41:45;101612.75;;;-0.25;65.24
76847;BME280;65813;49.546;8.644;2023-02-28T05:45:45;101615.53;;;-0.47;63.81
76847;BME280;65813;49.546;8.644;2023-02-28T05:49:45;101625.16;;;-0.45;64.36
76847;BME280;65813;49.546;8.644;2023-02-28T05:53:46;101631.19;;;-0.40;64.18
76847;BME280;65813;49.546;8.644;2023-02-28T05:57:53;101628.78;;;-0.64;63.86
76847;BME280;65813;49.546;8.644;2023-02-28T06:01:54;101632.16;;;-0.50;65.13
76847;BME280;65813;49.546;8.644;2023-02-28T06:05:55;101627.78;;;-0.51;63.56
76847;BME280;65813;49.546;8.644;2023-02-28T06:09:55;101627.81;;;-0.54;64.27
76847;BME280;65813;49.546;8.644;2023-02-28T06:13:57;101631.34;;;-0.57;63.98
76847;BME280;65813;49.546;8.644;2023-02-28T06:17:59;101637.50;;;-0.68;64.02
76847;BME280;65813;49.546;8.644;2023-02-28T06:22:00;101624.47;;;-0.70;63.72
76847;BME280;65813;49.546;8.644;2023-02-28T06:26:00;101630.34;;;-0.43;64.48
76847;BME280;65813;49.546;8.644;2023-02-28T06:30:00;101632.25;;;-0.64;63.01
76847;BME280;65813;49.546;8.644;2023-02-28T06:34:01;101633.44;;;-0.01;63.62
76847;BME280;65813;49.546;8.644;2023-02-28T06:38:01;101634.84;;;0.29;61.69
76847;BME280;65813;49.546;8.644;2023-02-28T06:42:01;101640.63;;;-0.21;62.20
76847;BME280;65813;49.546;8.644;2023-02-28T06:46:04;101634.66;;;-0.35;63.05
76847;BME280;65813;49.546;8.644;2023-02-28T06:50:05;101632.78;;;-0.22;62.76
76847;BME280;65813;49.546;8.644;2023-02-28T06:54:06;101645.03;;;-0.27;64.15
76847;BME280;65813;49.546;8.644;2023-02-28T06:58:09;101646.81;;;-0.31;63.40
76847;BME280;65813;49.546;8.644;2023-02-28T07:02:18;101658.28;;;-0.47;62.61
76847;BME280;65813;49.546;8.644;2023-02-28T07:06:22;101661.34;;;0.00;63.90
76847;BME280;65813;49.546;8.644;2023-02-28T07:10:22;101652.00;;;0.58;62.49
76847;BME280;65813;49.546;8.644;2023-02-28T07:14:23;101661.63;;;0.56;61.41
76847;BME280;65813;49.546;8.644;2023-02-28T07:18:23;101665.47;;;0.24;60.69
76847;BME280;65813;49.546;8.644;2023-02-28T07:22:24;101668.00;;;0.32;60.18
76847;BME280;65813;49.546;8.644;2023-02-28T07:26:25;101669.31;;;0.69;60.29
76847;BME280;65813;49.546;8.644;2023-02-28T07:30:25;101672.88;;;0.65;59.88
76847;BME280;65813;49.546;8.644;2023-02-28T07:34:25;101672.94;;;0.59;59.66
76847;BME280;65813;49.546;8.644;2023-02-28T07:38:26;101675.00;;;0.33;60.01
76847;BME280;65813;49.546;8.644;2023-02-28T07:42:26;101669.56;;;0.49;59.37
76847;BME280;65813;49.546;8.644;2023-02-28T07:46:26;101678.78;;;0.82;59.17
76847;BME280;65813;49.546;8.644;2023-02-28T07:50:27;101684.03;;;0.81;58.53
76847;BME280;65813;49.546;8.644;2023-02-28T07:54:31;101670.56;;;1.10;57.90
76847;BME280;65813;49.546;8.644;2023-02-28T07:58:31;101680.13;;;1.11;57.70
76847;BME280;65813;49.546;8.644;2023-02-28T08:02:32;101676.47;;;1.24;57.06
76847;BME280;65813;49.546;8.644;2023-02-28T08:06:32;101685.91;;;1.37;56.33
76847;BME280;65813;49.546;8.644;2023-02-28T08:10:33;101683.19;;;1.41;55.78
76847;BME280;65813;49.546;8.644;2023-02-28T08:14:33;101684.00;;;1.46;55.88
76847;BME280;65813;49.546;8.644;2023-02-28T08:18:34;101687.53;;;1.44;55.84
76847;BME280;65813;49.546;8.644;2023-02-28T08:22:34;101678.56;;;1.59;56.21
76847;BME280;65813;49.546;8.644;2023-02-28T08:26:34;101669.56;;;1.73;55.43
76847;BME280;65813;49.546;8.644;2023-02-28T08:30:35;101666.75;;;1.84;55.00
76847;BME280;65813;49.546;8.644;2023-02-28T08:34:35;101664.94;;;1.87;54.94
76847;BME280;65813;49.546;8.644;2023-02-28T08:38:36;101670.22;;;1.86;54.97
76847;BME280;65813;49.546;8.644;2023-02-28T08:42:37;101659.63;;;1.92;54.57
76847;BME280;65813;49.546;8.644;2023-02-28T08:46:37;101667.41;;;1.96;54.46
76847;BME280;65813;49.546;8.644;2023-02-28T08:50:38;101668.66;;;1.74;53.31
76847;BME280;65813;49.546;8.644;2023-02-28T08:54:38;101662.19;;;1.93;53.56
76847;BME280;65813;49.546;8.644;2023-02-28T08:58:39;101671.63;;;2.05;52.62
76847;BME280;65813;49.546;8.644;2023-02-28T09:02:40;101661.88;;;2.12;51.99
76847;BME280;65813;49.546;8.644;2023-02-28T09:06:42;101663.38;;;2.25;52.51
76847;BME280;65813;49.546;8.644;2023-02-28T09:10:44;101661.00;;;2.11;51.55
76847;BME280;65813;49.546;8.644;2023-02-28T09:14:44;101668.69;;;2.22;51.61
76847;BME280;65813;49.546;8.644;2023-02-28T09:18:45;101665.13;;;2.24;50.79
76847;BME280;65813;49.546;8.644;2023-02-28T09:22:45;101672.19;;;2.24;50.49
76847;BME280;65813;49.546;8.644;2023-02-28T09:26:45;101672.19;;;2.22;50.22
76847;BME280;65813;49.546;8.644;2023-02-28T09:30:51;101665.25;;;2.20;50.82
76847;BME280;65813;49.546;8.644;2023-02-28T09:34:52;101665.00;;;2.32;50.73
76847;BME280;65813;49.546;8.644;2023-02-28T09:38:52;101669.13;;;2.45;50.36
76847;BME280;65813;49.546;8.644;2023-02-28T09:42:55;101673.63;;;2.40;49.93
76847;BME280;65813;49.546;8.644;2023-02-28T09:47:50;101662.03;;;2.50;49.19
76847;BME280;65813;49.546;8.644;2023-02-28T09:55:51;101660.88;;;2.63;48.72
76847;BME280;65813;49.546;8.644;2023-02-28T10:00:10;101647.56;;;2.72;48.50
76847;BME280;65813;49.546;8.644;2023-02-28T10:04:35;101654.06;;;2.96;47.89
76847;BME280;65813;49.546;8.644;2023-02-28T10:08:52;101656.13;;;3.20;47.42
76847;BME280;65813;49.546;8.644;2023-02-28T10:12:58;101657.25;;;3.47;46.75
76847;BME280;65813;49.546;8.644;2023-02-28T10:17:03;101659.97;;;3.44;46.68
76847;BME280;65813;49.546;8.644;2023-02-28T10:21:05;101660.19;;;3.70;46.20
76847;BME280;65813;49.546;8.644;2023-02-28T10:25:21;101654.81;;;4.08;46.03
76847;BME280;65813;49.546;8.644;2023-02-28T10:29:21;101652.00;;;4.15;45.17
76847;BME280;65813;49.546;8.644;2023-02-28T10:33:24;101657.19;;;3.85;45.22
76847;BME280;65813;49.546;8.644;2023-02-28T10:37:25;101663.69;;;4.06;44.55
76847;BME280;65813;49.546;8.644;2023-02-28T10:41:31;101659.03;;;4.16;44.57
76847;BME280;65813;49.546;8.644;2023-02-28T10:45:35;101657.28;;;4.15;44.58
76847;BME280;65813;49.546;8.644;2023-02-28T10:49:37;101641.63;;;4.72;44.35
76847;BME280;65813;49.546;8.644;2023-02-28T10:53:54;101637.28;;;4.38;43.34
76847;BME280;65813;49.546;8.644;2023-02-28T10:57:55;101639.38;;;4.58;43.41
76847;BME280;65813;49.546;8.644;2023-02-28T11:01:56;101639.22;;;4.32;44.07
76847;BME280;65813;49.546;8.644;2023-02-28T11:05:57;101646.56;;;3.88;44.55
76847;BME280;65813;49.546;8.644;2023-02-28T11:09:58;101647.28;;;3.60;45.42
76847;BME280;65813;49.546;8.644;2023-02-28T11:14:04;101645.97;;;3.77;45.00
76847;BME280;65813;49.546;8.644;2023-02-28T11:22:18;101645.09;;;3.41;45.50
76847;BME280;65813;49.546;8.644;2023-02-28T11:26:37;101637.88;;;3.85;45.60
76847;BME280;65813;49.546;8.644;2023-02-28T11:30:40;101652.72;;;3.87;44.39
76847;BME280;65813;49.546;8.644;2023-02-28T11:34:42;101636.59;;;4.32;43.36
76847;BME280;65813;49.546;8.644;2023-02-28T11:38:43;101636.88;;;4.53;42.93
76847;BME280;65813;49.546;8.644;2023-02-28T11:42:54;101626.31;;;4.53;42.37
76847;BME280;65813;49.546;8.644;2023-02-28T11:51:15;101624.56;;;4.54;42.04
76847;BME280;65813;49.546;8.644;2023-02-28T11:55:19;101625.88;;;4.69;41.56
76847;BME280;65813;49.546;8.644;2023-02-28T12:17:20;101612.78;;;5.49;40.41
76847;BME280;65813;49.546;8.644;2023-02-28T12:25:53;101614.88;;;5.39;41.43
76847;BME280;65813;49.546;8.644;2023-02-28T12:30:00;101599.19;;;5.87;42.01
76847;BME280;65813;49.546;8.644;2023-02-28T12:34:07;101595.94;;;6.04;42.00
76847;BME280;65813;49.546;8.644;2023-02-28T12:38:31;101593.88;;;6.37;42.60
76847;BME280;65813;49.546;8.644;2023-02-28T12:42:56;101595.41;;;6.44;40.19
76847;BME280;65813;49.546;8.644;2023-02-28T12:47:02;101600.38;;;5.77;40.83
76847;BME280;65813;49.546;8.644;2023-02-28T12:51:06;101584.75;;;6.21;41.68
76847;BME280;65813;49.546;8.644;2023-02-28T12:59:47;101584.78;;;5.96;40.69
76847;BME280;65813;49.546;8.644;2023-02-28T13:04:27;101591.25;;;5.87;40.50
76847;BME280;65813;49.546;8.644;2023-02-28T13:12:53;101586.38;;;5.75;40.62
76847;BME280;65813;49.546;8.644;2023-02-28T13:20:59;101602.31;;;5.98;39.60
76847;BME280;65813;49.546;8.644;2023-02-28T13:25:00;101598.66;;;5.76;39.77
76847;BME280;65813;49.546;8.644;2023-02-28T13:29:21;101597.44;;;5.34;40.46
76847;BME280;65813;49.546;8.644;2023-02-28T13:37:43;101591.03;;;5.67;40.17
76847;BME280;65813;49.546;8.644;2023-02-28T13:41:45;101600.00;;;5.37;40.74
76847;BME280;65813;49.546;8.644;2023-02-28T13:46:06;101597.63;;;5.28;41.46
76847;BME280;65813;49.546;8.644;2023-02-28T13:54:33;101596.38;;;5.66;40.73
76847;BME280;65813;49.546;8.644;2023-02-28T14:07:04;101585.75;;;5.67;40.79
76847;BME280;65813;49.546;8.644;2023-02-28T14:11:15;101584.63;;;5.74;41.26
76847;BME280;65813;49.546;8.644;2023-02-28T14:16:16;101593.53;;;5.72;41.50
76847;BME280;65813;49.546;8.644;2023-02-28T14:20:15;101595.75;;;5.84;40.86
76847;BME280;65813;49.546;8.644;2023-02-28T14:33:23;101611.25;;;5.42;41.26
76847;BME280;65813;49.546;8.644;2023-02-28T14:37:29;101593.41;;;5.22;41.92
76847;BME280;65813;49.546;8.644;2023-02-28T14:41:34;101597.16;;;5.15;41.93
76847;BME280;65813;49.546;8.644;2023-02-28T14:45:36;101596.16;;;5.19;42.91
76847;BME280;65813;49.546;8.644;2023-02-28T14:49:42;101595.59;;;5.09;42.46
76847;BME280;65813;49.546;8.644;2023-02-28T14:53:44;101590.47;;;5.03;42.36
76847;BME280;65813;49.546;8.644;2023-02-28T14:58:05;101596.94;;;5.23;41.89
76847;BME280;65813;49.546;8.644;2023-02-28T15:02:24;101598.34;;;5.33;41.43
76847;BME280;65813;49.546;8.644;2023-02-28T15:06:25;101583.94;;;5.17;41.73
76847;BME280;65813;49.546;8.644;2023-02-28T15:10:26;101591.41;;;5.30;42.28
76847;BME280;65813;49.546;8.644;2023-02-28T15:14:27;101588.44;;;5.13;42.67
76847;BME280;65813;49.546;8.644;2023-02-28T15:22:35;101582.28;;;4.85;43.06
76847;BME280;65813;49.546;8.644;2023-02-28T15:26:43;101585.25;;;5.02;43.03
76847;BME280;65813;49.546;8.644;2023-02-28T15:31:28;101582.19;;;5.16;42.46
76847;BME280;65813;49.546;8.644;2023-02-28T15:35:32;101580.56;;;5.12;42.39
76847;BME280;65813;49.546;8.644;2023-02-28T15:39:41;101582.16;;;5.17;43.43
76847;BME280;65813;49.546;8.644;2023-02-28T15:43:42;101583.41;;;5.32;42.75
76847;BME280;65813;49.546;8.644;2023-02-28T15:47:45;101588.44;;;5.39;42.04
76847;BME280;65813;49.546;8.644;2023-02-28T15:51:49;101588.69;;;5.32;42.25
76847;BME280;65813;49.546;8.644;2023-02-28T15:56:29;101583.19;;;5.38;42.60
76847;BME280;65813;49.546;8.644;2023-02-28T16:00:31;101585.84;;;5.38;42.96
76847;BME280;65813;49.546;8.644;2023-02-28T16:04:34;101584.06;;;5.38;42.64
76847;BME280;65813;49.546;8.644;2023-02-28T16:08:34;101589.09;;;5.20;43.01
76847;BME280;65813;49.546;8.644;2023-02-28T16:12:37;101596.28;;;5.15;43.99
76847;BME280;65813;49.546;8.644;2023-02-28T16:16:42;101601.00;;;5.33;43.56
76847;BME280;65813;49.546;8.644;2023-02-28T16:20:43;101598.91;;;5.16;43.30
76847;BME280;65813;49.546;8.644;2023-02-28T16:24:44;101598.22;;;5.09;43.34
76847;BME280;65813;49.546;8.644;2023-02-28T16:28:45;101597.28;;;4.83;43.55
76847;BME280;65813;49.546;8.644;2023-02-28T16:32:46;101603.16;;;4.92;43.34
76847;BME280;65813;49.546;8.644;2023-02-28T16:36:47;101594.91;;;4.75;43.85
76847;BME280;65813;49.546;8.644;2023-02-28T16:40:49;101600.94;;;4.79;43.79
76847;BME280;65813;49.546;8.644;2023-02-28T16:44:51;101608.31;;;4.68;44.24
76847;BME280;65813;49.546;8.644;2023-02-28T16:48:51;101615.38;;;4.67;44.35
76847;BME280;65813;49.546;8.644;2023-02-28T16:52:52;101610.00;;;4.70;43.70
76847;BME280;65813;49.546;8.644;2023-02-28T16:56:54;101612.16;;;4.56;45.25
76847;BME280;65813;49.546;8.644;2023-02-28T17:00:54;101609.69;;;4.51;44.80
76847;BME280;65813;49.546;8.644;2023-02-28T17:04:55;101607.88;;;4.52;45.41
76847;BME280;65813;49.546;8.644;2023-02-28T17:08:56;101612.25;;;4.53;45.33
76847;BME280;65813;49.546;8.644;2023-02-28T17:12:57;101619.19;;;4.57;45.75
76847;BME280;65813;49.546;8.644;2023-02-28T17:16:57;101628.97;;;4.53;46.85
76847;BME280;65813;49.546;8.644;2023-02-28T17:20:58;101630.41;;;4.64;46.81
76847;BME280;65813;49.546;8.644;2023-02-28T17:24:58;101641.41;;;4.48;47.11
76847;BME280;65813;49.546;8.644;2023-02-28T17:28:59;101643.41;;;4.40;48.56
76847;BME280;65813;49.546;8.644;2023-02-28T17:32:59;101651.59;;;4.30;48.32
76847;BME280;65813;49.546;8.644;2023-02-28T17:36:59;101645.91;;;4.45;47.46
76847;BME280;65813;49.546;8.644;2023-02-28T17:41:01;101653.34;;;4.31;47.74
76847;BME280;65813;49.546;8.644;2023-02-28T17:45:01;101651.53;;;4.33;48.77
76847;BME280;65813;49.546;8.644;2023-02-28T17:49:02;101652.63;;;4.24;48.16
76847;BME280;65813;49.546;8.644;2023-02-28T17:53:03;101659.03;;;4.16;47.23
76847;BME280;65813;49.546;8.644;2023-02-28T17:57:03;101662.72;;;4.08;47.81
76847;BME280;65813;49.546;8.644;2023-02-28T18:01:03;101660.06;;;4.10;50.05
76847;BME280;65813;49.546;8.644;2023-02-28T18:05:05;101662.28;;;3.93;48.98
76847;BME280;65813;49.546;8.644;2023-02-28T18:09:06;101659.56;;;3.94;50.41
76847;BME280;65813;49.546;8.644;2023-02-28T18:13:06;101657.06;;;3.90;51.02
76847;BME280;65813;49.546;8.644;2023-02-28T18:17:06;101658.25;;;3.78;49.84
76847;BME280;65813;49.546;8.644;2023-02-28T18:21:09;101662.81;;;3.70;50.26
76847;BME280;65813;49.546;8.644;2023-02-28T18:25:11;101667.13;;;3.74;50.72
76847;BME280;65813;49.546;8.644;2023-02-28T18:29:16;101665.69;;;3.61;50.57
76847;BME280;65813;49.546;8.644;2023-02-28T18:33:17;101673.53;;;3.63;51.58
76847;BME280;65813;49.546;8.644;2023-02-28T18:37:17;101670.97;;;3.61;52.66
76847;BME280;65813;49.546;8.644;2023-02-28T18:41:20;101667.03;;;3.42;51.01
76847;BME280;65813;49.546;8.644;2023-02-28T18:45:20;101666.28;;;3.37;51.35
76847;BME280;65813;49.546;8.644;2023-02-28T18:49:21;101662.94;;;3.30;51.40
76847;BME280;65813;49.546;8.644;2023-02-28T18:53:21;101660.41;;;3.24;51.53
76847;BME280;65813;49.546;8.644;2023-02-28T18:57:21;101663.97;;;3.22;52.40
76847;BME280;65813;49.546;8.644;2023-02-28T19:01:24;101661.50;;;3.16;53.50
76847;BME280;65813;49.546;8.644;2023-02-28T19:05:30;101670.72;;;2.96;52.36
76847;BME280;65813;49.546;8.644;2023-02-28T19:09:33;101667.00;;;3.05;52.48
76847;BME280;65813;49.546;8.644;2023-02-28T19:13:34;101666.28;;;2.98;53.12
76847;BME280;65813;49.546;8.644;2023-02-28T19:17:34;101673.59;;;2.84;52.65
76847;BME280;65813;49.546;8.644;2023-02-28T19:21:35;101671.03;;;2.81;52.97
76847;BME280;65813;49.546;8.644;2023-02-28T19:25:39;101664.03;;;2.80;53.83
76847;BME280;65813;49.546;8.644;2023-02-28T19:29:40;101666.84;;;3.13;56.23
76847;BME280;65813;49.546;8.644;2023-02-28T19:33:41;101668.47;;;2.78;54.74
76847;BME280;65813;49.546;8.644;2023-02-28T19:37:41;101668.25;;;2.87;54.49
76847;BME280;65813;49.546;8.644;2023-02-28T19:41:42;101671.19;;;2.74;54.31
76847;BME280;65813;49.546;8.644;2023-02-28T19:45:42;101682.56;;;2.74;56.07
76847;BME280;65813;49.546;8.644;2023-02-28T19:49:42;101677.31;;;2.73;54.50
76847;BME280;65813;49.546;8.644;2023-02-28T19:53:42;101671.16;;;2.75;56.17
76847;BME280;65813;49.546;8.644;2023-02-28T19:57:44;101670.69;;;2.55;54.79
76847;BME280;65813;49.546;8.644;2023-02-28T20:01:44;101662.81;;;2.55;54.81
76847;BME280;65813;49.546;8.644;2023-02-28T20:05:46;101666.91;;;2.68;54.60
76847;BME280;65813;49.546;8.644;2023-02-28T20:09:47;101660.94;;;2.60;54.86
76847;BME280;65813;49.546;8.644;2023-02-28T20:13:47;101666.47;;;2.48;54.92
76847;BME280;65813;49.546;8.644;2023-02-28T20:17:47;101675.19;;;2.48;55.46
76847;BME280;65813;49.546;8.644;2023-02-28T20:21:48;101676.16;;;2.44;56.21
76847;BME280;65813;49.546;8.644;2023-02-28T20:25:48;101669.38;;;2.31;55.35
76847;BME280;65813;49.546;8.644;2023-02-28T20:29:50;101678.69;;;2.49;57.02
76847;BME280;65813;49.546;8.644;2023-02-28T20:33:52;101671.25;;;2.26;54.47
76847;BME280;65813;49.546;8.644;2023-02-28T20:37:52;101668.69;;;2.23;56.37
76847;BME280;65813;49.546;8.644;2023-02-28T20:41:52;101673.25;;;2.14;57.06
76847;BME280;65813;49.546;8.644;2023-02-28T20:45:55;101671.66;;;2.03;57.11
76847;BME280;65813;49.546;8.644;2023-02-28T20:49:57;101654.84;;;2.14;56.92
76847;BME280;65813;49.546;8.644;2023-02-28T20:53:57;101651.53;;;2.02;56.86
76847;BME280;65813;49.546;8.644;2023-02-28T20:57:58;101657.97;;;1.85;56.77
76847;BME280;65813;49.546;8.644;2023-02-28T21:01:58;101658.84;;;1.85;56.80
76847;BME280;65813;49.546;8.644;2023-02-28T21:06:00;101649.16;;;1.89;57.56
76847;BME280;65813;49.546;8.644;2023-02-28T21:10:01;101659.00;;;1.76;57.78
76847;BME280;65813;49.546;8.644;2023-02-28T21:14:05;101656.13;;;1.90;57.87
76847;BME280;65813;49.546;8.644;2023-02-28T21:18:06;101657.84;;;1.92;57.59
76847;BME280;65813;49.546;8.644;2023-02-28T21:22:06;101653.91;;;1.67;57.58
76847;BME280;65813;49.546;8.644;2023-02-28T21:26:08;101665.44;;;1.57;57.29
76847;BME280;65813;49.546;8.644;2023-02-28T21:30:10;101670.53;;;1.68;57.89
76847;BME280;65813;49.546;8.644;2023-02-28T21:34:11;101671.69;;;1.51;58.22
76847;BME280;65813;49.546;8.644;2023-02-28T21:38:12;101668.75;;;2.20;55.51
76847;BME280;65813;49.546;8.644;2023-02-28T21:42:12;101617.78;;;1.28;56.25
76847;BME280;65813;49.546;8.644;2023-02-28T21:46:15;101653.16;;;1.59;56.91
76847;BME280;65813;49.546;8.644;2023-02-28T21:50:16;101638.44;;;1.49;56.27
76847;BME280;65813;49.546;8.644;2023-02-28T21:54:17;101641.22;;;1.38;56.80
76847;BME280;65813;49.546;8.644;2023-02-28T21:58:17;101643.91;;;1.35;56.98
76847;BME280;65813;49.546;8.644;2023-02-28T22:02:17;101650.47;;;1.62;56.37
76847;BME280;65813;49.546;8.644;2023-02-28T22:06:20;101661.78;;;1.69;56.00
76847;BME280;65813;49.546;8.644;2023-02-28T22:10:21;101641.88;;;1.54;56.85
76847;BME280;65813;49.546;8.644;2023-02-28T22:14:22;101657.78;;;1.43;56.63
